sensor_id;sensor_type;location;lat;lon;timestamp;pressure;altitude;pressure_sealevel;temperature;humidity
13934;BME280;7039;52.168;9.866;2023-05-23T00:00:54;100333.19;;;17.65;93.85
13934;BME280;7039;52.168;9.866;2023-05-23T00:03:21;100332.03;;;17.90;92.05
13934;BME280;7039;52.168;9.866;2023-05-23T00:05:48;100329.31;;;18.02;90.59
13934;BME280;7039;52.168;9.866;2023-05-23T00:08:15;100338.72;;;18.15;90.54
13934;BME280;7039;52.168;9.866;2023-05-23T00:10:42;100344.00;;;18.15;90.56
13934;BME280;7039;52.168;9.866;2023-05-23T00:13:09;100339.03;;;18.01;91.32
13934;BME280;7039;52.168;9.866;2023-05-23T00:15:37;100342.97;;;17.86;92.60
13934;BME280;7039;52.168;9.866;2023-05-23T00:18:05;100346.28;;;17.56;95.37
13934;BME280;7039;52.168;9.866;2023-05-23T00:20:33;100345.13;;;17.37;96.38
13934;BME280;7039;52.168;9.866;2023-05-23T00:23:00;100350.13;;;17.51;95.93
13934;BME280;7039;52.168;9.866;2023-05-23T00:25:27;100339.13;;;17.46;95.69
13934;BME280;7039;52.168;9.866;2023-05-23T00:27:58;100344.59;;;17.54;95.89
13934;BME280;7039;52.168;9.866;2023-05-23T00:30:24;100346.94;;;17.69;95.66
13934;BME280;7039;52.168;9.866;2023-05-23T00:32:53;100348.84;;;17.78;95.35
13934;BME280;7039;52.168;9.866;2023-05-23T00:35:20;100345.16;;;17.69;95.72
13934;BME280;7039;52.168;9.866;2023-05-23T00:37:47;100349.03;;;17.54;96.27
13934;BME280;7039;52.168;9.866;2023-05-23T00:40:16;100352.75;;;17.51;96.59
13934;BME280;7039;52.168;9.866;2023-05-23T00:42:42;100345.94;;;17.49;96.78
13934;BME280;7039;52.168;9.866;2023-05-23T00:45:09;100348.59;;;17.49;97.02
13934;BME280;7039;52.168;9.866;2023-05-23T00:47:37;100355.09;;;17.66;96.57
13934;BME280;7039;52.168;9.866;2023-05-23T00:50:07;100347.69;;;17.60;97.16
13934;BME280;7039;52.168;9.866;2023-05-23T00:52:36;100346.13;;;17.57;96.58
13934;BME280;7039;52.168;9.866;2023-05-23T00:55:03;100350.44;;;17.69;96.14
13934;BME280;7039;52.168;9.866;2023-05-23T00:57:30;100349.88;;;17.54;96.47
13934;BME280;7039;52.168;9.866;2023-05-23T00:59:58;100351.31;;;17.59;96.82
13934;BME280;7039;52.168;9.866;2023-05-23T01:02:25;100352.81;;;17.72;96.04
13934;BME280;7039;52.168;9.866;2023-05-23T01:04:52;100354.81;;;17.80;95.56
13934;BME280;7039;52.168;9.866;2023-05-23T01:07:22;100354.84;;;17.69;95.99
13934;BME280;7039;52.168;9.866;2023-05-23T01:09:49;100355.66;;;17.81;95.99
13934;BME280;7039;52.168;9.866;2023-05-23T01:12:19;100345.81;;;17.94;95.75
13934;BME280;7039;52.168;9.866;2023-05-23T01:14:57;100350.28;;;17.82;96.01
13934;BME280;7039;52.168;9.866;2023-05-23T01:17:28;100337.56;;;17.87;96.61
13934;BME280;7039;52.168;9.866;2023-05-23T01:19:59;100346.81;;;17.70;97.93
13934;BME280;7039;52.168;9.866;2023-05-23T01:22:53;100348.13;;;17.76;97.95
13934;BME280;7039;52.168;9.866;2023-05-23T01:25:32;100353.16;;;17.79;98.03
13934;BME280;7039;52.168;9.866;2023-05-23T01:28:07;100356.81;;;17.67;98.68
13934;BME280;7039;52.168;9.866;2023-05-23T01:30:39;100357.38;;;17.70;98.23
13934;BME280;7039;52.168;9.866;2023-05-23T01:33:06;100361.00;;;17.03;99.20
13934;BME280;7039;52.168;9.866;2023-05-23T01:35:33;100358.47;;;17.02;98.42
13934;BME280;7039;52.168;9.866;2023-05-23T01:38:01;100354.88;;;16.91;97.85
13934;BME280;7039;52.168;9.866;2023-05-23T01:40:28;100366.97;;;17.05;97.30
13934;BME280;7039;52.168;9.866;2023-05-23T01:42:55;100372.50;;;17.02;96.83
13934;BME280;7039;52.168;9.866;2023-05-23T01:45:25;100376.69;;;16.82;97.30
13934;BME280;7039;52.168;9.866;2023-05-23T01:47:53;100383.25;;;16.77;98.75
13934;BME280;7039;52.168;9.866;2023-05-23T01:50:21;100388.66;;;16.98;97.07
13934;BME280;7039;52.168;9.866;2023-05-23T01:52:48;100374.50;;;16.76;97.28
13934;BME280;7039;52.168;9.866;2023-05-23T01:55:16;100371.78;;;16.89;97.33
13934;BME280;7039;52.168;9.866;2023-05-23T01:57:49;100387.91;;;16.73;97.89
13934;BME280;7039;52.168;9.866;2023-05-23T02:00:16;100380.50;;;16.78;97.95
13934;BME280;7039;52.168;9.866;2023-05-23T02:02:45;100389.94;;;16.58;98.73
13934;BME280;7039;52.168;9.866;2023-05-23T02:05:11;100393.66;;;16.67;97.80
13934;BME280;7039;52.168;9.866;2023-05-23T02:07:38;100388.34;;;16.44;97.13
13934;BME280;7039;52.168;9.866;2023-05-23T02:10:07;100388.47;;;16.54;95.97
13934;BME280;7039;52.168;9.866;2023-05-23T02:12:33;100391.56;;;16.48;96.08
13934;BME280;7039;52.168;9.866;2023-05-23T02:15:00;100388.94;;;16.48;95.87
13934;BME280;7039;52.168;9.866;2023-05-23T02:17:26;100394.88;;;16.27;96.54
13934;BME280;7039;52.168;9.866;2023-05-23T02:19:54;100406.19;;;16.52;95.44
13934;BME280;7039;52.168;9.866;2023-05-23T02:22:22;100405.34;;;16.40;95.36
13934;BME280;7039;52.168;9.866;2023-05-23T02:24:49;100415.38;;;16.35;95.82
13934;BME280;7039;52.168;9.866;2023-05-23T02:27:15;100414.91;;;16.41;95.36
13934;BME280;7039;52.168;9.866;2023-05-23T02:29:42;100415.41;;;16.46;95.10
13934;BME280;7039;52.168;9.866;2023-05-23T02:32:08;100416.94;;;16.38;94.40
13934;BME280;7039;52.168;9.866;2023-05-23T02:34:35;100405.53;;;16.37;94.09
13934;BME280;7039;52.168;9.866;2023-05-23T02:37:04;100405.84;;;16.21;92.87
13934;BME280;7039;52.168;9.866;2023-05-23T02:39:30;100403.78;;;16.38;91.80
13934;BME280;7039;52.168;9.866;2023-05-23T02:41:57;100408.25;;;16.13;91.28
13934;BME280;7039;52.168;9.866;2023-05-23T02:44:23;100412.31;;;16.17;90.24
13934;BME280;7039;52.168;9.866;2023-05-23T02:46:49;100406.19;;;16.17;90.25
13934;BME280;7039;52.168;9.866;2023-05-23T02:49:16;100407.28;;;16.14;89.38
13934;BME280;7039;52.168;9.866;2023-05-23T02:51:42;100418.03;;;16.11;89.34
13934;BME280;7039;52.168;9.866;2023-05-23T02:54:10;100418.53;;;16.16;89.27
13934;BME280;7039;52.168;9.866;2023-05-23T02:56:37;100415.84;;;16.05;89.56
13934;BME280;7039;52.168;9.866;2023-05-23T02:59:03;100411.91;;;15.99;89.70
13934;BME280;7039;52.168;9.866;2023-05-23T03:01:30;100420.78;;;16.10;89.99
13934;BME280;7039;52.168;9.866;2023-05-23T03:03:56;100419.53;;;16.26;89.17
13934;BME280;7039;52.168;9.866;2023-05-23T03:06:23;100417.84;;;16.25;89.05
13934;BME280;7039;52.168;9.866;2023-05-23T03:08:51;100422.34;;;16.12;89.49
13934;BME280;7039;52.168;9.866;2023-05-23T03:11:20;100412.38;;;16.28;89.05
13934;BME280;7039;52.168;9.866;2023-05-23T03:13:47;100424.31;;;16.33;88.30
13934;BME280;7039;52.168;9.866;2023-05-23T03:16:13;100414.31;;;16.38;88.18
13934;BME280;7039;52.168;9.866;2023-05-23T03:18:40;100419.06;;;16.33;88.33
13934;BME280;7039;52.168;9.866;2023-05-23T03:21:06;100422.88;;;16.28;88.22
13934;BME280;7039;52.168;9.866;2023-05-23T03:23:33;100417.09;;;16.23;88.78
13934;BME280;7039;52.168;9.866;2023-05-23T03:26:00;100417.28;;;16.33;88.33
13934;BME280;7039;52.168;9.866;2023-05-23T03:28:29;100415.59;;;16.32;88.31
13934;BME280;7039;52.168;9.866;2023-05-23T03:30:56;100414.50;;;16.35;87.99
13934;BME280;7039;52.168;9.866;2023-05-23T03:33:22;100419.41;;;16.28;87.76
13934;BME280;7039;52.168;9.866;2023-05-23T03:35:49;100413.66;;;16.23;88.27
13934;BME280;7039;52.168;9.866;2023-05-23T03:38:17;100412.56;;;16.25;88.23
13934;BME280;7039;52.168;9.866;2023-05-23T03:40:43;100411.13;;;16.21;88.12
13934;BME280;7039;52.168;9.866;2023-05-23T03:43:10;100413.19;;;16.29;87.50
13934;BME280;7039;52.168;9.866;2023-05-23T03:45:37;100416.88;;;16.15;87.97
13934;BME280;7039;52.168;9.866;2023-05-23T03:48:04;100407.47;;;16.00;88.18
13934;BME280;7039;52.168;9.866;2023-05-23T03:50:31;100414.13;;;16.28;87.48
13934;BME280;7039;52.168;9.866;2023-05-23T03:52:57;100407.44;;;16.24;87.54
13934;BME280;7039;52.168;9.866;2023-05-23T03:55:24;100411.63;;;16.26;88.24
13934;BME280;7039;52.168;9.866;2023-05-23T03:57:50;100418.41;;;16.18;88.06
13934;BME280;7039;52.168;9.866;2023-05-23T04:00:17;100415.19;;;16.25;88.26
13934;BME280;7039;52.168;9.866;2023-05-23T04:02:45;100412.09;;;16.20;88.64
13934;BME280;7039;52.168;9.866;2023-05-23T04:05:12;100416.56;;;16.07;88.90
13934;BME280;7039;52.168;9.866;2023-05-23T04:07:38;100414.63;;;16.22;89.15
13934;BME280;7039;52.168;9.866;2023-05-23T04:10:07;100418.03;;;16.11;89.61
13934;BME280;7039;52.168;9.866;2023-05-23T04:12:33;100416.81;;;15.80;91.28
13934;BME280;7039;52.168;9.866;2023-05-23T04:15:00;100416.28;;;15.88;91.40
13934;BME280;7039;52.168;9.866;2023-05-23T04:17:26;100424.94;;;15.77;92.33
13934;BME280;7039;52.168;9.866;2023-05-23T04:19:56;100426.72;;;15.63;93.57
13934;BME280;7039;52.168;9.866;2023-05-23T04:22:22;100423.88;;;15.79;93.64
13934;BME280;7039;52.168;9.866;2023-05-23T04:24:49;100432.72;;;15.65;94.65
13934;BME280;7039;52.168;9.866;2023-05-23T04:27:15;100433.16;;;15.59;94.92
13934;BME280;7039;52.168;9.866;2023-05-23T04:29:42;100433.81;;;15.50;96.78
13934;BME280;7039;52.168;9.866;2023-05-23T04:32:11;100419.94;;;15.48;96.31
13934;BME280;7039;52.168;9.866;2023-05-23T04:34:38;100421.25;;;15.66;96.09
13934;BME280;7039;52.168;9.866;2023-05-23T04:37:07;100425.56;;;15.68;95.61
13934;BME280;7039;52.168;9.866;2023-05-23T04:39:34;100432.41;;;15.57;95.70
13934;BME280;7039;52.168;9.866;2023-05-23T04:42:01;100430.03;;;15.54;95.48
13934;BME280;7039;52.168;9.866;2023-05-23T04:44:27;100421.44;;;15.39;95.41
13934;BME280;7039;52.168;9.866;2023-05-23T04:46:54;100415.31;;;15.52;94.14
13934;BME280;7039;52.168;9.866;2023-05-23T04:49:21;100410.78;;;15.54;93.62
13934;BME280;7039;52.168;9.866;2023-05-23T04:51:47;100416.31;;;15.38;94.39
13934;BME280;7039;52.168;9.866;2023-05-23T04:54:15;100422.38;;;15.51;93.88
13934;BME280;7039;52.168;9.866;2023-05-23T04:56:42;100428.47;;;15.52;93.63
13934;BME280;7039;52.168;9.866;2023-05-23T04:59:08;100421.88;;;15.70;92.90
13934;BME280;7039;52.168;9.866;2023-05-23T05:01:35;100426.72;;;15.76;92.45
13934;BME280;7039;52.168;9.866;2023-05-23T05:04:04;100432.59;;;15.80;91.79
13934;BME280;7039;52.168;9.866;2023-05-23T05:06:30;100428.63;;;15.61;92.48
13934;BME280;7039;52.168;9.866;2023-05-23T05:08:57;100430.97;;;15.53;92.75
13934;BME280;7039;52.168;9.866;2023-05-23T05:11:25;100424.69;;;15.80;92.02
13934;BME280;7039;52.168;9.866;2023-05-23T05:13:52;100430.84;;;15.92;91.39
13934;BME280;7039;52.168;9.866;2023-05-23T05:16:19;100423.88;;;15.79;91.79
13934;BME280;7039;52.168;9.866;2023-05-23T05:18:45;100434.53;;;15.89;91.77
13934;BME280;7039;52.168;9.866;2023-05-23T05:21:12;100435.94;;;15.82;91.24
13934;BME280;7039;52.168;9.866;2023-05-23T05:23:38;100430.44;;;15.74;92.00
13934;BME280;7039;52.168;9.866;2023-05-23T05:26:05;100436.81;;;15.70;92.18
13934;BME280;7039;52.168;9.866;2023-05-23T05:28:33;100436.38;;;15.76;92.19
13934;BME280;7039;52.168;9.866;2023-05-23T05:31:00;100440.78;;;15.38;93.06
13934;BME280;7039;52.168;9.866;2023-05-23T05:33:29;100442.44;;;15.52;92.28
13934;BME280;7039;52.168;9.866;2023-05-23T05:36:00;100436.91;;;15.68;91.93
13934;BME280;7039;52.168;9.866;2023-05-23T05:38:27;100433.16;;;15.59;92.08
13934;BME280;7039;52.168;9.866;2023-05-23T05:40:53;100434.22;;;15.57;92.49
13934;BME280;7039;52.168;9.866;2023-05-23T05:43:19;100439.50;;;15.44;93.63
13934;BME280;7039;52.168;9.866;2023-05-23T05:45:47;100440.47;;;15.43;93.28
13934;BME280;7039;52.168;9.866;2023-05-23T05:48:14;100443.81;;;15.45;93.27
13934;BME280;7039;52.168;9.866;2023-05-23T05:50:41;100438.19;;;15.25;94.33
13934;BME280;7039;52.168;9.866;2023-05-23T05:53:09;100432.41;;;15.57;93.54
13934;BME280;7039;52.168;9.866;2023-05-23T05:55:36;100443.78;;;15.71;93.15
13934;BME280;7039;52.168;9.866;2023-05-23T05:58:03;100442.91;;;15.70;92.75
13934;BME280;7039;52.168;9.866;2023-05-23T06:00:29;100452.53;;;15.58;93.24
13934;BME280;7039;52.168;9.866;2023-05-23T06:02:57;100446.47;;;15.82;92.80
13934;BME280;7039;52.168;9.866;2023-05-23T06:05:24;100442.19;;;15.81;92.30
13934;BME280;7039;52.168;9.866;2023-05-23T06:07:51;100449.59;;;15.87;92.86
13934;BME280;7039;52.168;9.866;2023-05-23T06:10:17;100443.81;;;15.58;93.68
13934;BME280;7039;52.168;9.866;2023-05-23T06:12:44;100449.88;;;15.71;93.31
13934;BME280;7039;52.168;9.866;2023-05-23T06:15:10;100448.72;;;15.62;94.14
13934;BME280;7039;52.168;9.866;2023-05-23T06:17:38;100443.41;;;15.38;95.76
13934;BME280;7039;52.168;9.866;2023-05-23T06:20:07;100444.88;;;15.42;96.63
13934;BME280;7039;52.168;9.866;2023-05-23T06:22:33;100449.50;;;15.52;96.08
13934;BME280;7039;52.168;9.866;2023-05-23T06:25:00;100444.25;;;15.39;96.91
13934;BME280;7039;52.168;9.866;2023-05-23T06:27:26;100440.22;;;15.46;96.95
13934;BME280;7039;52.168;9.866;2023-05-23T06:29:52;100444.81;;;15.31;97.39
13934;BME280;7039;52.168;9.866;2023-05-23T06:32:19;100453.75;;;15.29;98.20
13934;BME280;7039;52.168;9.866;2023-05-23T06:34:45;100451.84;;;15.31;97.87
13934;BME280;7039;52.168;9.866;2023-05-23T06:37:13;100450.25;;;15.28;98.32
13934;BME280;7039;52.168;9.866;2023-05-23T06:39:40;100456.38;;;15.29;98.35
13934;BME280;7039;52.168;9.866;2023-05-23T06:42:07;100458.59;;;15.09;99.21
13934;BME280;7039;52.168;9.866;2023-05-23T06:44:33;100454.38;;;15.07;99.47
13934;BME280;7039;52.168;9.866;2023-05-23T06:47:00;100455.41;;;15.17;99.70
13934;BME280;7039;52.168;9.866;2023-05-23T06:49:26;100454.34;;;15.32;98.27
13934;BME280;7039;52.168;9.866;2023-05-23T06:54:36;100454.66;;;15.40;98.60
13934;BME280;7039;52.168;9.866;2023-05-23T06:57:06;100453.50;;;15.44;98.10
13934;BME280;7039;52.168;9.866;2023-05-23T06:59:32;100464.94;;;15.56;97.17
13934;BME280;7039;52.168;9.866;2023-05-23T07:01:59;100461.53;;;15.17;98.49
13934;BME280;7039;52.168;9.866;2023-05-23T07:04:26;100468.34;;;15.07;99.58
13934;BME280;7039;52.168;9.866;2023-05-23T07:06:52;100476.53;;;15.41;98.59
13934;BME280;7039;52.168;9.866;2023-05-23T07:09:19;100472.75;;;15.32;99.66
13934;BME280;7039;52.168;9.866;2023-05-23T07:11:48;100476.13;;;15.34;100.00
13934;BME280;7039;52.168;9.866;2023-05-23T07:14:14;100475.72;;;15.02;100.00
13934;BME280;7039;52.168;9.866;2023-05-23T07:16:41;100480.44;;;14.84;100.00
13934;BME280;7039;52.168;9.866;2023-05-23T07:19:07;100472.84;;;14.67;100.00
13934;BME280;7039;52.168;9.866;2023-05-23T07:21:34;100476.22;;;14.56;100.00
13934;BME280;7039;52.168;9.866;2023-05-23T07:24:01;100476.09;;;14.57;100.00
13934;BME280;7039;52.168;9.866;2023-05-23T07:26:27;100476.97;;;14.58;100.00
13934;BME280;7039;52.168;9.866;2023-05-23T07:28:55;100483.25;;;14.68;100.00
13934;BME280;7039;52.168;9.866;2023-05-23T07:31:22;100487.25;;;14.61;100.00
13934;BME280;7039;52.168;9.866;2023-05-23T07:33:49;100498.47;;;14.63;100.00
13934;BME280;7039;52.168;9.866;2023-05-23T07:36:15;100505.09;;;14.41;100.00
13934;BME280;7039;52.168;9.866;2023-05-23T07:38:42;100499.75;;;14.43;100.00
13934;BME280;7039;52.168;9.866;2023-05-23T07:41:08;100498.50;;;14.49;100.00
13934;BME280;7039;52.168;9.866;2023-05-23T07:43:35;100502.16;;;14.33;100.00
13934;BME280;7039;52.168;9.866;2023-05-23T07:46:02;100499.66;;;14.45;100.00
13934;BME280;7039;52.168;9.866;2023-05-23T07:48:29;100512.88;;;14.43;100.00
13934;BME280;7039;52.168;9.866;2023-05-23T07:50:56;100504.56;;;14.36;100.00
13934;BME280;7039;52.168;9.866;2023-05-23T07:53:22;100507.97;;;14.51;100.00
13934;BME280;7039;52.168;9.866;2023-05-23T07:55:49;100510.94;;;14.32;100.00
13934;BME280;7039;52.168;9.866;2023-05-23T07:58:15;100513.50;;;14.34;100.00
13934;BME280;7039;52.168;9.866;2023-05-23T08:00:42;100517.09;;;14.46;100.00
13934;BME280;7039;52.168;9.866;2023-05-23T08:03:09;100520.31;;;14.36;100.00
13934;BME280;7039;52.168;9.866;2023-05-23T08:05:37;100518.97;;;14.44;100.00
13934;BME280;7039;52.168;9.866;2023-05-23T08:08:03;100528.25;;;14.49;100.00
13934;BME280;7039;52.168;9.866;2023-05-23T08:10:30;100523.44;;;14.29;100.00
13934;BME280;7039;52.168;9.866;2023-05-23T08:12:56;100541.38;;;14.22;100.00
13934;BME280;7039;52.168;9.866;2023-05-23T08:15:24;100534.41;;;14.21;100.00
13934;BME280;7039;52.168;9.866;2023-05-23T08:17:51;100544.28;;;14.17;100.00
13934;BME280;7039;52.168;9.866;2023-05-23T08:22:58;100533.28;;;13.98;100.00
13934;BME280;7039;52.168;9.866;2023-05-23T08:25:25;100552.75;;;14.08;100.00
13934;BME280;7039;52.168;9.866;2023-05-23T08:27:54;100549.81;;;14.13;100.00
13934;BME280;7039;52.168;9.866;2023-05-23T08:30:22;100554.78;;;14.03;100.00
13934;BME280;7039;52.168;9.866;2023-05-23T08:32:50;100562.19;;;14.11;100.00
13934;BME280;7039;52.168;9.866;2023-05-23T08:35:16;100557.69;;;14.13;100.00
13934;BME280;7039;52.168;9.866;2023-05-23T08:37:43;100569.81;;;13.87;100.00
13934;BME280;7039;52.168;9.866;2023-05-23T08:40:59;100556.41;;;13.91;100.00
13934;BME280;7039;52.168;9.866;2023-05-23T08:43:47;100562.94;;;13.98;100.00
13934;BME280;7039;52.168;9.866;2023-05-23T08:46:29;100580.66;;;13.81;100.00
13934;BME280;7039;52.168;9.866;2023-05-23T08:49:40;100582.84;;;13.74;100.00
13934;BME280;7039;52.168;9.866;2023-05-23T08:52:24;100590.78;;;13.72;100.00
13934;BME280;7039;52.168;9.866;2023-05-23T08:54:53;100606.78;;;13.82;100.00
13934;BME280;7039;52.168;9.866;2023-05-23T08:57:22;100593.69;;;13.82;100.00
13934;BME280;7039;52.168;9.866;2023-05-23T08:59:51;100603.81;;;13.74;100.00
13934;BME280;7039;52.168;9.866;2023-05-23T09:02:19;100601.38;;;13.56;100.00
13934;BME280;7039;52.168;9.866;2023-05-23T09:04:47;100608.56;;;13.53;100.00
13934;BME280;7039;52.168;9.866;2023-05-23T09:07:15;100608.00;;;13.62;100.00
13934;BME280;7039;52.168;9.866;2023-05-23T09:09:44;100622.50;;;13.53;100.00
13934;BME280;7039;52.168;9.866;2023-05-23T09:12:11;100618.84;;;13.42;100.00
13934;BME280;7039;52.168;9.866;2023-05-23T09:14:39;100621.84;;;13.50;100.00
13934;BME280;7039;52.168;9.866;2023-05-23T09:17:06;100636.75;;;13.49;100.00
13934;BME280;7039;52.168;9.866;2023-05-23T09:19:32;100631.50;;;13.49;100.00
13934;BME280;7039;52.168;9.866;2023-05-23T09:22:01;100643.94;;;13.46;100.00
13934;BME280;7039;52.168;9.866;2023-05-23T09:24:42;100641.03;;;13.20;100.00
13934;BME280;7039;52.168;9.866;2023-05-23T09:27:09;100651.44;;;13.22;100.00
13934;BME280;7039;52.168;9.866;2023-05-23T09:29:39;100650.88;;;13.47;100.00
13934;BME280;7039;52.168;9.866;2023-05-23T09:32:10;100655.47;;;13.27;100.00
13934;BME280;7039;52.168;9.866;2023-05-23T09:34:40;100656.63;;;13.07;100.00
13934;BME280;7039;52.168;9.866;2023-05-23T09:37:16;100668.66;;;12.95;100.00
13934;BME280;7039;52.168;9.866;2023-05-23T09:39:45;100677.91;;;13.01;100.00
13934;BME280;7039;52.168;9.866;2023-05-23T09:42:19;100664.66;;;13.04;100.00
13934;BME280;7039;52.168;9.866;2023-05-23T09:44:47;100679.13;;;12.95;100.00
13934;BME280;7039;52.168;9.866;2023-05-23T09:47:24;100703.50;;;12.96;100.00
13934;BME280;7039;52.168;9.866;2023-05-23T09:49:51;100687.03;;;12.94;100.00
13934;BME280;7039;52.168;9.866;2023-05-23T09:52:18;100676.59;;;12.78;100.00
13934;BME280;7039;52.168;9.866;2023-05-23T09:54:46;100686.72;;;12.84;100.00
13934;BME280;7039;52.168;9.866;2023-05-23T09:57:16;100687.03;;;12.94;100.00
13934;BME280;7039;52.168;9.866;2023-05-23T09:59:52;100692.53;;;12.89;100.00
13934;BME280;7039;52.168;9.866;2023-05-23T10:02:52;100691.97;;;12.84;100.00
13934;BME280;7039;52.168;9.866;2023-05-23T10:05:30;100711.63;;;12.75;100.00
13934;BME280;7039;52.168;9.866;2023-05-23T10:08:06;100704.72;;;12.59;100.00
13934;BME280;7039;52.168;9.866;2023-05-23T10:11:27;100696.94;;;12.73;99.95
13934;BME280;7039;52.168;9.866;2023-05-23T10:14:09;100690.94;;;12.71;97.27
13934;BME280;7039;52.168;9.866;2023-05-23T10:16:54;100718.72;;;12.89;98.33
13934;BME280;7039;52.168;9.866;2023-05-23T10:19:26;100710.47;;;12.97;98.54
13934;BME280;7039;52.168;9.866;2023-05-23T10:21:58;100744.31;;;12.84;98.54
13934;BME280;7039;52.168;9.866;2023-05-23T10:24:26;100724.63;;;12.93;99.85
13934;BME280;7039;52.168;9.866;2023-05-23T10:26:53;100730.19;;;13.19;99.26
13934;BME280;7039;52.168;9.866;2023-05-23T10:29:21;100724.03;;;13.04;99.01
13934;BME280;7039;52.168;9.866;2023-05-23T10:35:28;100741.19;;;13.09;99.25
13934;BME280;7039;52.168;9.866;2023-05-23T10:38:27;100745.47;;;13.26;99.68
13934;BME280;7039;52.168;9.866;2023-05-23T10:41:02;100740.28;;;12.94;99.41
13934;BME280;7039;52.168;9.866;2023-05-23T10:43:50;100743.59;;;13.12;98.54
13934;BME280;7039;52.168;9.866;2023-05-23T10:46:21;100749.88;;;12.78;97.87
13934;BME280;7039;52.168;9.866;2023-05-23T10:48:47;100741.13;;;12.79;98.24
13934;BME280;7039;52.168;9.866;2023-05-23T10:51:21;100758.09;;;13.04;97.72
13934;BME280;7039;52.168;9.866;2023-05-23T10:53:52;100756.97;;;13.08;97.07
13934;BME280;7039;52.168;9.866;2023-05-23T10:56:21;100754.84;;;12.99;96.71
13934;BME280;7039;52.168;9.866;2023-05-23T10:58:51;100752.50;;;12.94;97.31
13934;BME280;7039;52.168;9.866;2023-05-23T11:01:19;100760.44;;;13.08;96.79
13934;BME280;7039;52.168;9.866;2023-05-23T11:03:52;100767.91;;;13.46;96.51
13934;BME280;7039;52.168;9.866;2023-05-23T11:06:31;100765.59;;;12.94;97.41
13934;BME280;7039;52.168;9.866;2023-05-23T11:09:04;100766.19;;;12.67;98.44
13934;BME280;7039;52.168;9.866;2023-05-23T11:11:58;100771.66;;;12.63;98.94
13934;BME280;7039;52.168;9.866;2023-05-23T11:14:52;100778.75;;;12.61;99.23
13934;BME280;7039;52.168;9.866;2023-05-23T11:17:31;100780.84;;;12.54;99.05
13934;BME280;7039;52.168;9.866;2023-05-23T11:20:32;100800.09;;;12.69;99.68
13934;BME280;7039;52.168;9.866;2023-05-23T11:23:15;100795.50;;;12.74;96.81
13934;BME280;7039;52.168;9.866;2023-05-23T11:28:26;100799.50;;;12.30;98.39
13934;BME280;7039;52.168;9.866;2023-05-23T11:30:56;100807.47;;;12.11;98.98
13934;BME280;7039;52.168;9.866;2023-05-23T11:35:58;100802.59;;;12.21;100.00
13934;BME280;7039;52.168;9.866;2023-05-23T12:43:08;100862.59;;;13.72;83.45
13934;BME280;7039;52.168;9.866;2023-05-23T12:45:37;100849.75;;;13.67;82.27
13934;BME280;7039;52.168;9.866;2023-05-23T12:48:06;100862.09;;;13.65;82.55
13934;BME280;7039;52.168;9.866;2023-05-23T12:53:20;100885.81;;;13.78;81.36
13934;BME280;7039;52.168;9.866;2023-05-23T12:55:46;100876.28;;;13.77;81.00
13934;BME280;7039;52.168;9.866;2023-05-23T12:58:14;100878.22;;;13.73;79.91
13934;BME280;7039;52.168;9.866;2023-05-23T13:00:40;100873.75;;;13.60;79.43
13934;BME280;7039;52.168;9.866;2023-05-23T13:03:07;100874.59;;;13.60;79.71
13934;BME280;7039;52.168;9.866;2023-05-23T13:05:33;100887.09;;;13.71;77.86
13934;BME280;7039;52.168;9.866;2023-05-23T13:08:00;100886.56;;;13.80;76.65
13934;BME280;7039;52.168;9.866;2023-05-23T13:10:27;100888.63;;;14.05;76.84
13934;BME280;7039;52.168;9.866;2023-05-23T13:12:54;100886.81;;;14.22;76.22
13934;BME280;7039;52.168;9.866;2023-05-23T13:15:21;100892.63;;;14.57;76.10
13934;BME280;7039;52.168;9.866;2023-05-23T13:17:48;100879.88;;;14.35;75.68
13934;BME280;7039;52.168;9.866;2023-05-23T13:20:15;100902.47;;;14.37;74.25
13934;BME280;7039;52.168;9.866;2023-05-23T13:22:41;100901.94;;;14.02;73.71
13934;BME280;7039;52.168;9.866;2023-05-23T13:25:08;100887.22;;;13.99;72.76
13934;BME280;7039;52.168;9.866;2023-05-23T13:27:35;100882.50;;;14.20;72.28
13934;BME280;7039;52.168;9.866;2023-05-23T13:30:01;100892.91;;;14.67;72.16
13934;BME280;7039;52.168;9.866;2023-05-23T13:32:29;100899.25;;;15.76;69.49
13934;BME280;7039;52.168;9.866;2023-05-23T13:34:56;100892.38;;;16.91;65.31
13934;BME280;7039;52.168;9.866;2023-05-23T13:37:25;100889.06;;;17.50;62.00
13934;BME280;7039;52.168;9.866;2023-05-23T13:39:52;100886.50;;;16.88;62.72
13934;BME280;7039;52.168;9.866;2023-05-23T13:42:19;100889.81;;;15.86;63.91
13934;BME280;7039;52.168;9.866;2023-05-23T13:44:45;100887.09;;;15.46;68.62
13934;BME280;7039;52.168;9.866;2023-05-23T13:47:13;100880.53;;;15.80;66.33
13934;BME280;7039;52.168;9.866;2023-05-23T13:49:41;100893.56;;;16.09;65.88
13934;BME280;7039;52.168;9.866;2023-05-23T13:52:08;100888.22;;;15.56;66.49
13934;BME280;7039;52.168;9.866;2023-05-23T13:54:34;100889.72;;;15.46;67.32
13934;BME280;7039;52.168;9.866;2023-05-23T13:57:01;100895.63;;;16.31;66.93
13934;BME280;7039;52.168;9.866;2023-05-23T13:59:27;100892.59;;;17.38;61.63
13934;BME280;7039;52.168;9.866;2023-05-23T14:01:54;100896.44;;;17.82;58.90
13934;BME280;7039;52.168;9.866;2023-05-23T14:04:20;100905.53;;;17.41;60.68
13934;BME280;7039;52.168;9.866;2023-05-23T14:06:48;100899.59;;;17.26;61.32
13934;BME280;7039;52.168;9.866;2023-05-23T14:09:15;100911.72;;;18.25;58.86
13934;BME280;7039;52.168;9.866;2023-05-23T14:11:42;100895.41;;;17.11;59.77
13934;BME280;7039;52.168;9.866;2023-05-23T14:14:09;100902.72;;;16.95;61.18
13934;BME280;7039;52.168;9.866;2023-05-23T14:16:35;100904.97;;;16.22;61.30
13934;BME280;7039;52.168;9.866;2023-05-23T14:19:02;100908.66;;;16.20;61.37
13934;BME280;7039;52.168;9.866;2023-05-23T14:21:28;100908.34;;;16.37;61.57
13934;BME280;7039;52.168;9.866;2023-05-23T14:23:56;100913.03;;;16.72;61.01
13934;BME280;7039;52.168;9.866;2023-05-23T14:26:23;100905.53;;;16.91;61.62
13934;BME280;7039;52.168;9.866;2023-05-23T14:28:50;100905.28;;;18.05;60.37